createdAt,value
2022-10-11T03:46:30.318Z,100956.16
2022-10-11T03:49:33.178Z,100956.16
2022-10-11T03:52:35.945Z,100955.53
2022-10-11T03:55:40.222Z,100954.47
2022-10-11T03:58:42.836Z,100967.47
2022-10-11T04:01:45.479Z,100962.75
2022-10-11T04:04:48.165Z,100962.50
2022-10-11T04:07:50.738Z,100960.50
2022-10-11T04:10:53.359Z,100957.47
2022-10-11T04:13:55.656Z,100964.31
2022-10-11T04:17:00.393Z,100966.84
2022-10-11T04:20:03.456Z,100967.31
2022-10-11T04:23:06.062Z,100968.00
2022-10-11T04:26:08.830Z,100968.00
2022-10-11T04:29:11.878Z,100971.72
2022-10-11T04:32:14.166Z,100969.16
2022-10-11T04:35:16.864Z,100979.47
2022-10-11T04:38:19.274Z,100976.06
2022-10-11T04:41:21.840Z,100965.69
2022-10-11T04:44:24.066Z,100971.34
2022-10-11T04:47:26.726Z,100964.78
2022-10-11T04:50:29.061Z,100968.31
2022-10-11T04:53:33.071Z,100965.56
2022-10-11T04:56:35.329Z,100966.25
2022-10-11T04:59:37.906Z,100961.50
2022-10-11T05:02:40.243Z,100962.59
2022-10-11T05:05:42.725Z,100964.84
2022-10-11T05:08:45.068Z,100968.41
2022-10-11T05:11:47.721Z,100967.62
2022-10-11T05:14:50.024Z,100958.53
2022-10-11T05:17:52.557Z,100966.63
2022-10-11T05:21:15.923Z,100969.94
2022-10-11T05:24:18.449Z,100976.94
2022-10-11T05:27:20.816Z,100984.38
2022-10-11T05:30:23.470Z,100983.63
2022-10-11T05:33:26.296Z,100983.03
2022-10-11T05:36:28.869Z,100992.25
2022-10-11T05:39:31.196Z,100986.31
2022-10-11T05:42:33.913Z,100989.84
2022-10-11T05:45:38.924Z,100996.47
2022-10-11T05:48:41.597Z,101004.25
2022-10-11T05:51:43.953Z,101001.25
2022-10-11T05:54:46.474Z,100999.66
2022-10-11T05:57:52.763Z,101005.91
2022-10-11T06:00:56.837Z,101007.94
2022-10-11T06:03:59.553Z,101011.06
2022-10-11T06:07:01.850Z,101009.81
2022-10-11T06:10:05.857Z,101011.97
2022-10-11T06:13:09.516Z,101016.53
2022-10-11T06:16:13.376Z,101024.84
2022-10-11T06:19:15.681Z,101029.03
2022-10-11T06:22:19.496Z,101031.25
2022-10-11T06:25:21.984Z,101031.53
2022-10-11T06:28:27.130Z,101029.81
2022-10-11T06:31:29.516Z,101032.12
2022-10-11T06:34:32.878Z,101033.84
2022-10-11T06:37:35.062Z,101039.09
2022-10-11T06:40:38.215Z,101027.94
2022-10-11T06:43:40.526Z,101034.81
2022-10-11T06:46:43.329Z,101035.00
2022-10-11T06:49:45.648Z,101036.06
2022-10-11T06:52:48.240Z,101027.06
2022-10-11T06:55:50.566Z,101034.03
2022-10-11T06:58:54.049Z,101030.53
2022-10-11T07:01:56.435Z,101041.94
2022-10-11T07:04:59.005Z,101044.84
2022-10-11T07:08:02.184Z,101043.59
2022-10-11T07:11:15.953Z,101048.88
2022-10-11T07:14:18.217Z,101051.47
2022-10-11T07:17:20.775Z,101046.53
2022-10-11T07:20:23.052Z,101053.75
2022-10-11T07:23:25.841Z,101039.19
2022-10-11T07:26:32.522Z,101044.84
2022-10-11T07:29:39.341Z,101041.00
2022-10-11T07:32:41.628Z,101045.06
2022-10-11T07:35:48.210Z,101044.19
2022-10-11T07:38:51.546Z,101037.97
2022-10-11T07:41:54.222Z,101051.63
2022-10-11T07:44:56.464Z,101055.25
2022-10-11T07:47:59.161Z,101053.84
2022-10-11T07:51:13.541Z,101054.31
2022-10-11T07:54:16.114Z,101056.34
2022-10-11T07:57:18.364Z,101052.44
2022-10-11T08:00:21.266Z,101058.34
2022-10-11T08:03:24.342Z,101056.53
2022-10-11T08:06:30.287Z,101063.87
2022-10-11T08:09:33.306Z,101058.66
2022-10-11T08:12:35.609Z,101056.81
2022-10-11T08:15:38.257Z,101053.81
2022-10-11T08:18:40.683Z,101062.25
2022-10-11T08:21:43.385Z,101064.22
2022-10-11T08:24:45.666Z,101061.03
2022-10-11T08:27:48.677Z,101059.16
2022-10-11T08:30:53.100Z,101056.12
2022-10-11T08:33:55.796Z,101066.97
2022-10-11T08:36:59.608Z,101061.13
2022-10-11T08:40:03.397Z,101069.44
2022-10-11T08:43:14.065Z,101068.28
2022-10-11T08:46:23.062Z,101060.91
2022-10-11T08:49:31.434Z,101063.34
2022-10-11T08:52:45.003Z,101053.50
2022-10-11T08:55:51.155Z,101059.34
2022-10-11T08:59:25.729Z,101068.28
2022-10-11T09:03:10.342Z,101060.28
2022-10-11T09:06:43.851Z,101059.78
2022-10-11T09:10:07.686Z,101058.13
2022-10-11T09:13:43.433Z,101067.66
2022-10-11T09:17:21.719Z,101060.34
2022-10-11T09:20:39.422Z,101065.41
2022-10-11T09:23:52.413Z,101066.06
2022-10-11T09:27:05.592Z,101061.47
2022-10-11T09:30:19.542Z,101073.41
2022-10-11T09:33:25.493Z,101076.88
2022-10-11T09:36:49.508Z,101074.56
2022-10-11T09:40:44.812Z,101072.66
2022-10-11T09:43:49.362Z,101086.88
2022-10-11T09:46:53.753Z,101078.50
2022-10-11T09:50:04.091Z,101076.16
2022-10-11T09:53:07.689Z,101076.59
2022-10-11T09:56:10.160Z,101071.47
2022-10-11T09:59:32.015Z,101084.97
2022-10-11T10:02:56.020Z,101074.22
2022-10-11T10:06:09.818Z,101075.97
2022-10-11T10:09:25.183Z,101085.66
2022-10-11T10:12:29.828Z,101070.56
2022-10-11T10:15:35.180Z,101071.19
2022-10-11T10:18:43.856Z,101066.34
2022-10-11T10:21:49.085Z,101063.41
2022-10-11T10:24:52.244Z,101057.31
2022-10-11T10:28:04.117Z,101054.69
2022-10-11T10:31:21.961Z,101048.62
2022-10-11T10:34:29.385Z,101052.56
2022-10-11T10:37:56.572Z,101049.25
2022-10-11T10:41:02.842Z,101055.81
2022-10-11T10:44:05.810Z,101055.81
2022-10-11T10:47:31.243Z,101053.72
2022-10-11T10:50:58.680Z,101055.81
2022-10-11T10:54:39.046Z,101053.75
2022-10-11T10:58:18.951Z,101047.16
2022-10-11T11:01:27.968Z,101042.16
2022-10-11T11:04:33.456Z,101041.34
2022-10-11T11:08:02.432Z,101038.31
2022-10-11T11:11:23.896Z,101034.69
2022-10-11T11:14:54.233Z,101037.22
2022-10-11T11:17:59.766Z,101042.28
2022-10-11T11:21:44.536Z,101039.63
2022-10-11T11:25:11.576Z,101029.84
2022-10-11T11:28:37.908Z,101036.28
2022-10-11T11:31:50.597Z,101033.28
2022-10-11T11:35:01.048Z,101032.53
2022-10-11T11:38:29.958Z,101027.16
2022-10-11T11:41:59.702Z,101023.03
2022-10-11T11:45:12.249Z,101020.25
2022-10-11T11:48:25.914Z,101020.50
2022-10-11T11:51:41.495Z,101015.19
2022-10-11T11:55:11.202Z,101022.19
2022-10-11T11:58:34.514Z,101013.16
2022-10-11T12:01:52.646Z,101009.38
2022-10-11T12:04:56.654Z,101014.22
2022-10-11T12:08:31.727Z,101012.16
2022-10-11T12:11:37.406Z,101010.78
2022-10-11T12:14:41.045Z,101008.94
2022-10-11T12:17:55.970Z,101011.56
2022-10-11T12:21:03.547Z,101001.53
2022-10-11T12:24:07.204Z,100992.84
2022-10-11T12:27:28.080Z,101006.16
2022-10-11T12:30:44.152Z,100998.84
2022-10-11T12:33:47.369Z,100999.59
2022-10-11T12:36:51.282Z,100986.25
2022-10-11T12:39:58.710Z,100990.00
2022-10-11T12:43:26.296Z,100982.59
2022-10-11T12:46:28.446Z,100987.91
2022-10-11T12:49:35.407Z,100984.78
2022-10-11T12:52:54.977Z,100984.41
2022-10-11T12:56:32.449Z,100990.69
2022-10-11T12:59:43.139Z,100983.81
2022-10-11T13:02:46.991Z,100986.28
2022-10-11T13:05:53.638Z,100981.22
2022-10-11T13:09:11.691Z,100985.97
2022-10-11T13:12:21.453Z,100992.41
2022-10-11T13:15:24.418Z,100980.94
2022-10-11T13:18:27.104Z,100989.41
2022-10-11T13:21:36.467Z,100985.87
2022-10-11T13:24:39.938Z,100983.66
2022-10-11T13:27:43.225Z,100991.81
2022-10-11T13:30:47.743Z,100989.72
2022-10-11T13:33:54.845Z,100987.47
2022-10-11T13:36:58.647Z,100991.78
2022-10-11T13:40:01.637Z,100981.53
2022-10-11T13:43:05.651Z,100985.75
2022-10-11T13:46:19.581Z,100991.84
2022-10-11T13:49:29.409Z,100987.72
2022-10-11T13:52:32.427Z,100987.75
2022-10-11T13:55:47.378Z,100986.47
2022-10-11T13:58:52.599Z,100982.75
2022-10-11T14:02:00.259Z,100985.47
2022-10-11T14:05:02.854Z,100983.38
2022-10-11T14:08:31.157Z,100989.41
2022-10-11T14:11:37.387Z,100980.22
2022-10-11T14:14:42.050Z,100983.22
2022-10-11T14:17:45.794Z,100979.72
2022-10-11T14:20:48.174Z,100982.00
2022-10-11T14:23:53.094Z,100985.87
2022-10-11T14:26:56.359Z,100982.50
2022-10-11T14:30:25.081Z,100983.22
2022-10-11T14:33:21.405Z,100987.09
2022-10-11T14:36:24.162Z,100989.66
2022-10-11T14:39:29.539Z,100987.66
2022-10-11T14:42:33.110Z,100982.91
2022-10-11T14:45:35.805Z,100982.59
2022-10-11T14:48:54.172Z,100987.66
2022-10-11T14:51:58.995Z,100984.03
2022-10-11T14:55:02.175Z,100984.97
2022-10-11T14:58:06.002Z,100993.91
2022-10-11T15:01:14.090Z,100990.00
2022-10-11T15:04:16.541Z,100987.06
2022-10-11T15:07:19.140Z,100986.50
2022-10-11T15:10:24.766Z,100984.31
2022-10-11T15:13:27.382Z,100991.81
2022-10-11T15:16:29.959Z,100991.91
2022-10-11T15:19:32.663Z,100990.72
2022-10-11T15:22:35.069Z,100995.69
2022-10-11T15:25:40.493Z,101004.22
2022-10-11T15:28:42.951Z,101003.37
2022-10-11T15:31:46.482Z,101002.75
2022-10-11T15:34:48.634Z,101008.38
2022-10-11T15:37:58.063Z,101005.31
2022-10-11T15:41:00.469Z,101012.63
